Des Moines, IA

9:17 AM CDT on October 23, 2014 (GMT -0500)
Des Moines International | Change Station
CLOSE
Current Station
Airport
Location: Des Moines,
Elevation: 965 ft
Nearby Weather Stations

Elev 965 ft 41.53 °N, 93.66 °W | Updated 13 minutes ago

Overcast
Overcast
55 °F
Feels Like 55 °F
N
7
Wind Variable Wind from SSW

Today
High -- | Low -- °F
--% Chance of Precip.
Yesterday
High -- | Low -- °F
Precip. -- in
7:35 AM 6:21 PM
Waning Crescent, 0% visible
Pressure 30.05 in
Visibility 10.0 miles
Clouds Mostly Cloudy 1100 ft
Overcast 2400 ft
Dew Point 52 °F
Humidity 89%
Rainfall 0.22 in
Snow Depth Not available.
UV 0 out of 12
Pollen .30 out of 12
Ozone Good
PM2.5 Good
Flu Activity Sporadic
SPECI KDSM 231404Z 21006KT 10SM BKN011 OVC024 13/11 A3005 RMK AO2 T01280111

More Conditions Fewer Conditions

Pressure 30.05 in
Visibility 10.0 miles
Clouds Mostly Cloudy 1100 ft
Overcast 2400 ft
Dew Point 52 °F
Humidity 89%
Rainfall 0.22 in
Snow Depth Not available.
UV 0 out of 12
Pollen .30 out of 12
Ozone Good
PM2.5 Good
Flu Activity Sporadic
SPECI KDSM 231404Z 21006KT 10SM BKN011 OVC024 13/11 A3005 RMK AO2 T01280111

More Conditions Fewer Conditions

10-Day Weather Forecast

Almanac

Astronomy

Oct. 23, 2014 Rise Set
Actual Time 7:35 AM CDT 6:21 PM CDT
Civil Twilight 7:07 AM CDT 6:49 PM CDT
Nautical Twilight 6:35 AM CDT 7:21 PM CDT
Astronomical Twilight 6:02 AM CDT 7:54 PM CDT
Moon 7:15 AM CDT 6:23 PM CDT
Length of Visible Light 11h 42m
Length of Day
10h 45m
Tomorrow will be 2m 35s shorter.
Waning Crescent, 0% of the Moon is Illuminated
Today
Waning Crescent
Oct 23
New
Oct 30
First Quarter
Nov 6
Full
Nov 14
Last Quarter

Today's Extremes

State Highs State Lows

Community

WunderPhotos

Upload Photos

1,764,256 photos uploaded!

Nearby

Air Quality

  Air Quality AQ Index Pollutant
Yesterday Good
OZONE
Yesterday Good
PM2.5
Current Good
PM2.5
Current Good
OZONE
Thursday Good
OZONE
Thursday Good
PM2.5
Thursday Good
CO
Thursday Good
NO2
Friday Good
OZONE
Friday Good
PM2.5
Friday Good
CO
Friday Good
NO2
Saturday Good
OZONE
Saturday Good
PM2.5
Saturday Good
CO
Saturday Good
NO2
Sunday Good
OZONE
Sunday Good
PM2.5
Sunday Good
CO
Sunday Good
NO2
Monday Good
OZONE
Monday Good
PM2.5
Monday Good
CO
Monday Good
NO2
Tuesday Good
OZONE
Tuesday Good
PM2.5
Tuesday Good
CO
Tuesday Good
NO2

Snow Depth

Station Depth Elevation
No new snow has been reported.

Earthquake Activity

City Distance Mag. Time & Date
No recent earthquake activity has been reported nearby.
Minimum magnitude displayed is 2.5.

Coastal Water Temperatures

Place Temperature
No Stations Reporting

Nearby Weather Stations